createdAt,value
2023-05-19T00:00:34.251Z,6.37
2023-05-19T00:01:37.438Z,5.75
2023-05-19T00:02:40.664Z,6.00
2023-05-19T00:03:51.337Z,5.62
2023-05-19T00:04:54.363Z,5.92
2023-05-19T00:05:57.846Z,5.71
2023-05-19T00:07:03.162Z,5.94
2023-05-19T00:08:06.947Z,6.02
2023-05-19T00:09:11.389Z,5.91
2023-05-19T00:10:14.853Z,6.06
2023-05-19T00:11:17.214Z,6.57
2023-05-19T00:12:19.691Z,5.44
2023-05-19T00:13:22.809Z,5.47
2023-05-19T00:14:25.891Z,6.31
2023-05-19T00:15:28.439Z,5.59
2023-05-19T00:16:31.277Z,6.07
2023-05-19T00:17:33.348Z,5.91
2023-05-19T00:18:36.321Z,5.72
2023-05-19T00:19:38.485Z,5.28
2023-05-19T00:20:40.472Z,5.89
2023-05-19T00:21:42.393Z,5.63
2023-05-19T00:22:44.417Z,6.17
2023-05-19T00:23:46.429Z,5.63
2023-05-19T00:24:48.937Z,5.99
2023-05-19T00:25:50.921Z,5.18
2023-05-19T00:26:52.935Z,5.63
2023-05-19T00:27:54.863Z,5.29
2023-05-19T00:28:56.949Z,5.28
2023-05-19T00:29:58.858Z,5.86
2023-05-19T00:31:01.539Z,5.45
2023-05-19T00:32:04.305Z,5.53
2023-05-19T00:33:06.338Z,5.97
2023-05-19T00:34:08.411Z,5.29
2023-05-19T00:35:10.984Z,6.63
2023-05-19T00:36:14.312Z,4.89
2023-05-19T00:37:16.344Z,5.53
2023-05-19T00:38:18.466Z,4.92
2023-05-19T00:39:20.523Z,4.67
2023-05-19T00:40:25.970Z,5.26
2023-05-19T00:41:28.787Z,4.89
2023-05-19T00:42:31.432Z,5.88
2023-05-19T00:43:33.558Z,5.35
2023-05-19T00:44:39.200Z,5.11
2023-05-19T00:45:41.297Z,4.99
2023-05-19T00:46:43.691Z,4.82
2023-05-19T00:47:46.521Z,4.73
2023-05-19T00:48:48.649Z,4.35
2023-05-19T00:49:50.667Z,4.79
2023-05-19T00:50:55.494Z,4.89
2023-05-19T00:51:58.869Z,4.39
2023-05-19T00:53:00.995Z,4.16
2023-05-19T00:54:03.658Z,5.22
2023-05-19T00:55:07.309Z,5.01
2023-05-19T00:56:10.046Z,4.41
2023-05-19T00:57:13.647Z,5.12
2023-05-19T00:58:16.498Z,4.91
2023-05-19T00:59:18.419Z,5.41
2023-05-19T01:00:20.619Z,4.65
2023-05-19T01:01:22.777Z,4.05
2023-05-19T01:02:26.930Z,4.63
2023-05-19T01:03:31.471Z,4.90
2023-05-19T01:04:36.957Z,4.45
2023-05-19T01:05:40.787Z,4.72
2023-05-19T01:06:43.205Z,4.34
2023-05-19T01:07:45.458Z,4.19
2023-05-19T01:08:47.347Z,4.77
2023-05-19T01:09:49.367Z,4.37
2023-05-19T01:10:51.335Z,5.10
2023-05-19T01:11:53.258Z,4.62
2023-05-19T01:12:55.149Z,4.25
2023-05-19T01:13:57.093Z,4.51
2023-05-19T01:15:00.051Z,4.00
2023-05-19T01:16:09.041Z,4.60
2023-05-19T01:17:26.804Z,4.28
2023-05-19T01:19:57.944Z,4.31
2023-05-19T01:21:20.593Z,4.53
2023-05-19T01:22:43.091Z,4.58
2023-05-19T01:23:48.902Z,4.42
2023-05-19T01:25:00.288Z,5.26
2023-05-19T01:26:41.478Z,4.40
2023-05-19T01:28:07.149Z,4.67
2023-05-19T01:29:35.463Z,5.51
2023-05-19T01:30:41.102Z,4.28
2023-05-19T01:31:44.655Z,4.60
2023-05-19T01:32:47.872Z,5.09
2023-05-19T01:33:52.771Z,4.01
2023-05-19T01:34:56.346Z,4.64
2023-05-19T01:35:59.697Z,4.89
2023-05-19T01:37:03.231Z,4.62
2023-05-19T01:38:08.227Z,4.34
2023-05-19T01:39:10.751Z,4.13
2023-05-19T01:40:13.945Z,4.40
2023-05-19T01:41:18.017Z,4.13
2023-05-19T01:42:20.646Z,3.85
2023-05-19T01:43:25.836Z,4.68
2023-05-19T01:44:28.811Z,4.24
2023-05-19T01:45:33.530Z,4.42
2023-05-19T01:46:37.493Z,4.29
2023-05-19T01:47:42.322Z,3.86
2023-05-19T01:48:45.075Z,4.32
2023-05-19T01:49:46.973Z,4.35
2023-05-19T01:50:49.156Z,4.67
2023-05-19T01:51:52.426Z,4.09
2023-05-19T01:52:54.998Z,4.50
2023-05-19T01:53:56.994Z,3.74
2023-05-19T01:54:59.180Z,4.78
2023-05-19T01:56:01.314Z,4.72
2023-05-19T01:57:30.815Z,4.23
2023-05-19T01:58:39.310Z,4.37
2023-05-19T01:59:53.661Z,4.82
2023-05-19T02:01:16.205Z,4.97
2023-05-19T02:02:22.076Z,4.71
2023-05-19T02:05:04.202Z,4.58
2023-05-19T02:06:16.840Z,4.31
2023-05-19T02:07:37.168Z,4.64
2023-05-19T02:08:59.803Z,4.24
2023-05-19T02:10:08.269Z,4.67
2023-05-19T02:11:19.956Z,4.58
2023-05-19T02:12:34.229Z,4.27
2023-05-19T02:13:39.607Z,4.61
2023-05-19T02:15:00.146Z,4.24
2023-05-19T02:16:06.964Z,4.45
2023-05-19T02:17:12.419Z,4.28
2023-05-19T02:18:15.231Z,4.62
2023-05-19T02:19:26.598Z,4.53
2023-05-19T02:20:28.868Z,4.49
2023-05-19T02:21:31.909Z,4.86
2023-05-19T02:22:34.192Z,4.31
2023-05-19T02:23:36.088Z,4.44
2023-05-19T02:24:38.055Z,4.51
2023-05-19T02:25:39.968Z,4.96
2023-05-19T02:26:42.169Z,4.49
2023-05-19T02:27:44.040Z,4.13
2023-05-19T02:28:45.952Z,5.69
2023-05-19T02:29:47.983Z,4.59
2023-05-19T02:30:50.214Z,4.66
2023-05-19T02:31:52.160Z,4.81
2023-05-19T02:32:54.219Z,4.66
2023-05-19T02:33:56.318Z,4.35
2023-05-19T02:34:58.277Z,4.75
2023-05-19T02:36:00.409Z,4.61
2023-05-19T02:37:02.326Z,4.47
2023-05-19T02:38:04.364Z,4.40
2023-05-19T02:39:06.669Z,4.43
2023-05-19T02:40:09.203Z,4.43
2023-05-19T02:41:11.114Z,4.23
2023-05-19T02:42:13.093Z,4.84
2023-05-19T02:43:14.993Z,4.71
2023-05-19T02:44:16.939Z,4.43
2023-05-19T02:45:18.877Z,4.59
2023-05-19T02:46:21.125Z,4.81
2023-05-19T02:47:23.109Z,4.76
2023-05-19T02:48:25.352Z,4.12
2023-05-19T02:49:27.355Z,4.05
2023-05-19T02:50:29.364Z,4.15
2023-05-19T02:51:31.345Z,4.58
2023-05-19T02:52:33.225Z,4.39
2023-05-19T02:53:36.420Z,4.21
2023-05-19T02:54:38.400Z,4.72
2023-05-19T02:55:40.274Z,5.12
2023-05-19T02:56:42.278Z,4.88
2023-05-19T02:57:44.156Z,4.81
2023-05-19T02:58:46.027Z,4.56
2023-05-19T02:59:48.437Z,5.00
2023-05-19T03:00:50.422Z,4.81
2023-05-19T03:01:54.961Z,4.52
2023-05-19T03:02:57.148Z,5.01
2023-05-19T03:03:59.250Z,4.78
2023-05-19T03:05:01.708Z,5.17
2023-05-19T03:06:04.200Z,4.31
2023-05-19T03:07:06.078Z,4.42
2023-05-19T03:08:08.072Z,4.97
2023-05-19T03:09:10.042Z,4.30
2023-05-19T03:10:12.215Z,4.48
2023-05-19T03:11:14.099Z,4.77
2023-05-19T03:12:15.987Z,4.41
2023-05-19T03:13:17.947Z,4.53
2023-05-19T03:14:19.971Z,4.66
2023-05-19T03:15:21.876Z,4.87
2023-05-19T03:16:24.331Z,4.37
2023-05-19T03:17:26.621Z,4.51
2023-05-19T03:18:29.481Z,4.98
2023-05-19T03:19:31.804Z,4.69
2023-05-19T03:20:34.183Z,4.53
2023-05-19T03:21:36.506Z,4.49
2023-05-19T03:22:38.414Z,4.73
2023-05-19T03:23:40.457Z,5.19
2023-05-19T03:24:42.468Z,4.51
2023-05-19T03:25:44.480Z,4.51
2023-05-19T03:26:46.570Z,4.72
2023-05-19T03:27:48.584Z,4.71
2023-05-19T03:28:50.596Z,4.89
2023-05-19T03:29:52.494Z,4.95
2023-05-19T03:30:54.556Z,4.69
2023-05-19T03:31:57.602Z,5.07
2023-05-19T03:32:59.616Z,4.55
2023-05-19T03:34:01.632Z,4.75
2023-05-19T03:35:05.052Z,5.07
2023-05-19T03:36:07.388Z,4.59
2023-05-19T03:37:09.296Z,4.87
2023-05-19T03:38:11.241Z,4.47
2023-05-19T03:39:13.226Z,4.93
2023-05-19T03:40:16.369Z,4.70
2023-05-19T03:41:18.275Z,4.85
2023-05-19T03:42:20.184Z,4.71
2023-05-19T03:43:22.209Z,4.27
2023-05-19T03:44:24.092Z,4.45
2023-05-19T03:45:26.094Z,3.97
2023-05-19T03:46:28.443Z,4.71
2023-05-19T03:47:30.607Z,4.44
2023-05-19T03:48:33.675Z,4.67
2023-05-19T03:49:35.574Z,4.34
2023-05-19T03:50:37.580Z,4.35
2023-05-19T03:51:39.505Z,4.20
2023-05-19T03:52:42.152Z,4.50
2023-05-19T03:53:44.230Z,4.16
2023-05-19T03:54:46.151Z,4.65
2023-05-19T03:55:48.418Z,4.26
2023-05-19T03:56:50.470Z,4.79
2023-05-19T03:57:52.386Z,4.39
2023-05-19T03:58:54.614Z,4.33
2023-05-19T03:59:56.600Z,4.39
2023-05-19T04:00:58.802Z,4.39
2023-05-19T04:02:03.735Z,4.35
2023-05-19T04:03:06.362Z,4.43
2023-05-19T04:04:08.457Z,4.76
2023-05-19T04:05:10.715Z,4.62
2023-05-19T04:06:13.262Z,4.76
2023-05-19T04:07:15.354Z,4.99
2023-05-19T04:08:17.799Z,4.29
2023-05-19T04:09:21.014Z,5.07
2023-05-19T04:10:23.037Z,4.46
2023-05-19T04:11:25.345Z,4.68
2023-05-19T04:12:27.271Z,5.05
2023-05-19T04:13:29.872Z,4.33
2023-05-19T04:14:31.791Z,4.39
2023-05-19T04:15:34.787Z,4.41
2023-05-19T04:16:37.693Z,4.85
2023-05-19T04:17:40.002Z,3.77
2023-05-19T04:18:42.068Z,4.93
2023-05-19T04:19:44.022Z,4.15
2023-05-19T04:20:46.046Z,4.33
2023-05-19T04:21:48.027Z,4.09
2023-05-19T04:22:49.948Z,4.05
2023-05-19T04:23:51.973Z,3.87
2023-05-19T04:24:54.058Z,4.59
2023-05-19T04:25:55.986Z,3.96
2023-05-19T04:26:58.044Z,4.54
2023-05-19T04:27:59.946Z,4.49
2023-05-19T04:29:01.907Z,4.19
2023-05-19T04:30:05.321Z,4.24
2023-05-19T04:31:07.871Z,4.77
2023-05-19T04:32:09.845Z,4.55
2023-05-19T04:33:12.195Z,5.27
2023-05-19T04:34:14.358Z,4.68
2023-05-19T04:35:16.409Z,5.17
2023-05-19T04:36:18.604Z,5.04
2023-05-19T04:37:20.594Z,4.21
2023-05-19T04:38:22.653Z,4.03
2023-05-19T04:39:24.699Z,4.49
2023-05-19T04:40:27.195Z,4.13
2023-05-19T04:41:29.303Z,3.97
2023-05-19T04:42:31.793Z,4.31
2023-05-19T04:43:33.680Z,4.59
2023-05-19T04:44:35.572Z,4.04
2023-05-19T04:45:37.437Z,4.53
2023-05-19T04:46:39.525Z,4.75
2023-05-19T04:47:41.481Z,4.72
2023-05-19T04:48:43.708Z,4.71
2023-05-19T04:49:45.589Z,4.66
2023-05-19T04:50:47.560Z,4.56
2023-05-19T04:51:49.573Z,4.42
2023-05-19T04:52:51.462Z,4.74
2023-05-19T04:53:57.676Z,4.71
2023-05-19T04:54:59.727Z,4.78
2023-05-19T04:56:01.842Z,4.25
2023-05-19T04:57:05.022Z,5.18
2023-05-19T04:58:06.954Z,5.09
2023-05-19T04:59:09.530Z,5.35
2023-05-19T05:00:13.178Z,5.10
2023-05-19T05:01:15.613Z,4.80
2023-05-19T05:02:17.934Z,4.36
2023-05-19T05:03:20.131Z,4.21
2023-05-19T05:04:23.257Z,4.17
2023-05-19T05:05:25.290Z,4.11
2023-05-19T05:06:27.599Z,4.58
2023-05-19T05:07:31.646Z,4.78
2023-05-19T05:08:33.536Z,4.39
2023-05-19T05:09:35.826Z,4.68
2023-05-19T05:10:38.027Z,4.59
2023-05-19T05:11:40.813Z,4.86
2023-05-19T05:12:43.350Z,4.69
2023-05-19T05:13:46.213Z,4.28
2023-05-19T05:14:48.965Z,5.31
2023-05-19T05:15:51.578Z,5.19
2023-05-19T05:16:54.477Z,5.24
2023-05-19T05:17:58.078Z,4.45
2023-05-19T05:19:01.438Z,4.60
2023-05-19T05:20:04.835Z,5.09
2023-05-19T05:21:07.894Z,4.49
2023-05-19T05:22:10.682Z,4.96
2023-05-19T05:23:13.407Z,5.57
2023-05-19T05:24:16.397Z,5.08
2023-05-19T05:25:19.624Z,4.80
2023-05-19T05:26:22.568Z,4.92
2023-05-19T05:27:24.465Z,5.03
2023-05-19T05:28:26.384Z,4.68
2023-05-19T05:29:28.387Z,4.95
2023-05-19T05:30:30.850Z,5.49
2023-05-19T05:31:32.787Z,5.17
2023-05-19T05:32:34.991Z,5.00
2023-05-19T05:33:38.305Z,4.29
2023-05-19T05:34:40.612Z,4.60
2023-05-19T05:35:42.513Z,4.81
2023-05-19T05:36:44.613Z,4.84
2023-05-19T05:37:46.533Z,5.16
2023-05-19T05:38:48.994Z,4.57
2023-05-19T05:39:51.065Z,5.19
2023-05-19T05:40:53.254Z,5.22
2023-05-19T05:41:55.301Z,5.32
2023-05-19T05:42:58.331Z,5.24
2023-05-19T05:44:04.088Z,5.27
2023-05-19T05:45:07.178Z,5.45
2023-05-19T05:46:11.231Z,5.36
2023-05-19T05:47:14.680Z,5.00
2023-05-19T05:48:17.483Z,5.87
2023-05-19T05:49:20.169Z,4.83
2023-05-19T05:50:22.888Z,5.21
2023-05-19T05:51:25.477Z,5.03
2023-05-19T05:52:30.292Z,5.03
2023-05-19T05:53:36.204Z,5.42
2023-05-19T05:54:38.877Z,4.74
2023-05-19T05:55:41.728Z,5.21
2023-05-19T05:56:45.565Z,4.72
2023-05-19T05:57:48.496Z,5.31
2023-05-19T05:58:50.487Z,5.21
2023-05-19T05:59:52.919Z,4.87
2023-05-19T06:00:55.162Z,4.95
2023-05-19T06:01:57.245Z,5.00
2023-05-19T06:02:59.539Z,5.74
2023-05-19T06:04:01.626Z,5.73
2023-05-19T06:05:04.260Z,5.29
2023-05-19T06:06:09.602Z,5.06
2023-05-19T06:07:11.670Z,5.48
2023-05-19T06:08:13.553Z,5.27
2023-05-19T06:09:15.696Z,4.91
2023-05-19T06:10:17.817Z,5.15
2023-05-19T06:11:19.816Z,4.37
2023-05-19T06:12:21.836Z,4.87
2023-05-19T06:13:24.277Z,5.57
2023-05-19T06:14:27.116Z,4.98
2023-05-19T06:15:29.059Z,5.45
2023-05-19T06:16:31.195Z,6.16
2023-05-19T06:17:35.037Z,4.94
2023-05-19T06:18:37.185Z,5.04
2023-05-19T06:19:39.224Z,5.50
2023-05-19T06:20:41.280Z,5.77
2023-05-19T06:21:43.335Z,7.19
2023-05-19T06:22:45.654Z,6.48
2023-05-19T06:23:47.566Z,5.07
2023-05-19T06:24:49.573Z,5.33
2023-05-19T06:25:51.635Z,4.50
2023-05-19T06:26:55.424Z,4.82
2023-05-19T06:27:57.490Z,4.48
2023-05-19T06:28:59.483Z,4.48
2023-05-19T06:30:01.783Z,4.56
2023-05-19T06:31:03.864Z,4.27
2023-05-19T06:32:06.025Z,4.65
2023-05-19T06:33:07.982Z,4.57
2023-05-19T06:34:10.121Z,4.75
2023-05-19T06:35:12.100Z,4.83
2023-05-19T06:36:14.413Z,4.50
2023-05-19T06:37:16.465Z,4.65
2023-05-19T06:38:18.515Z,4.59
2023-05-19T06:39:21.642Z,4.31
2023-05-19T06:40:23.877Z,3.71
2023-05-19T06:41:25.745Z,4.28
2023-05-19T06:42:28.094Z,4.25
2023-05-19T06:43:30.207Z,4.15
2023-05-19T06:44:33.438Z,4.41
2023-05-19T06:45:35.444Z,4.42
2023-05-19T06:46:37.461Z,4.79
2023-05-19T06:47:39.556Z,4.60
2023-05-19T06:48:41.568Z,4.73
2023-05-19T06:50:55.901Z,4.43
2023-05-19T06:51:57.780Z,4.58
2023-05-19T06:53:01.252Z,4.39
2023-05-19T06:54:03.257Z,4.51
2023-05-19T06:55:06.560Z,4.23
2023-05-19T06:56:08.859Z,4.54
2023-05-19T06:57:10.734Z,4.49
2023-05-19T06:58:12.646Z,4.53
2023-05-19T06:59:14.511Z,4.84
2023-05-19T07:00:32.171Z,4.47
2023-05-19T07:01:21.351Z,5.09
2023-05-19T07:02:23.297Z,4.09
2023-05-19T07:03:25.271Z,4.24
2023-05-19T07:04:27.310Z,4.50
2023-05-19T07:05:29.285Z,4.03
2023-05-19T07:06:35.202Z,4.32
2023-05-19T07:07:37.883Z,4.43
2023-05-19T07:08:39.820Z,4.90
2023-05-19T07:09:42.249Z,4.53
2023-05-19T07:10:45.000Z,3.91
2023-05-19T07:11:46.986Z,4.43
2023-05-19T07:12:49.111Z,4.27
2023-05-19T07:13:51.112Z,3.95
2023-05-19T07:14:53.012Z,5.11
2023-05-19T07:15:54.933Z,4.27
2023-05-19T07:16:56.988Z,4.07
2023-05-19T07:17:58.877Z,4.33
2023-05-19T07:19:00.894Z,4.55
2023-05-19T07:20:03.623Z,4.43
2023-05-19T07:21:05.514Z,4.23
2023-05-19T07:22:07.390Z,3.88
2023-05-19T07:23:09.281Z,4.14
2023-05-19T07:24:11.281Z,4.31
2023-05-19T07:25:13.279Z,4.23
2023-05-19T07:26:15.363Z,4.43
2023-05-19T07:27:18.070Z,5.28
2023-05-19T07:28:19.962Z,3.87
2023-05-19T07:29:21.966Z,4.70
2023-05-19T07:30:25.891Z,4.57
2023-05-19T07:31:28.122Z,4.55
2023-05-19T07:32:30.126Z,4.74
2023-05-19T07:33:32.241Z,4.69
2023-05-19T07:34:34.346Z,4.61
2023-05-19T07:35:36.922Z,3.80
2023-05-19T07:36:39.117Z,4.07
2023-05-19T07:37:41.144Z,5.03
2023-05-19T07:38:43.042Z,4.05
2023-05-19T07:39:45.150Z,4.33
2023-05-19T07:40:47.356Z,4.47
2023-05-19T07:41:49.325Z,4.68
2023-05-19T07:42:51.236Z,4.11
2023-05-19T07:43:53.154Z,4.01
2023-05-19T07:44:55.108Z,4.56
2023-05-19T07:45:57.119Z,4.46
2023-05-19T07:46:59.659Z,4.58
2023-05-19T07:48:01.736Z,4.31
2023-05-19T07:49:05.975Z,3.47
2023-05-19T07:50:08.915Z,4.49
2023-05-19T07:51:11.847Z,3.52
2023-05-19T07:52:13.854Z,3.99
2023-05-19T07:53:15.733Z,4.72
2023-05-19T07:54:17.811Z,4.09
2023-05-19T07:55:19.704Z,3.73
2023-05-19T07:56:21.804Z,3.91
2023-05-19T07:57:23.796Z,4.39
2023-05-19T07:58:26.011Z,5.01
2023-05-19T07:59:28.061Z,6.15
2023-05-19T08:00:30.312Z,5.87
2023-05-19T08:01:32.216Z,4.87
2023-05-19T08:02:34.320Z,4.55
2023-05-19T08:03:36.390Z,3.75
2023-05-19T08:04:38.463Z,4.49
2023-05-19T08:05:40.582Z,4.00
2023-05-19T08:06:43.721Z,4.23
2023-05-19T08:07:46.016Z,3.85
2023-05-19T08:08:47.950Z,4.25
2023-05-19T08:09:50.553Z,4.58
2023-05-19T08:10:52.576Z,4.15
2023-05-19T08:11:54.648Z,4.03
2023-05-19T08:12:56.664Z,4.01
2023-05-19T08:13:58.572Z,4.59
2023-05-19T08:15:01.623Z,4.15
2023-05-19T08:16:04.495Z,4.10
2023-05-19T08:17:07.446Z,4.39
2023-05-19T08:18:09.822Z,4.53
2023-05-19T08:19:12.631Z,4.37
2023-05-19T08:20:15.133Z,4.89
2023-05-19T08:21:17.139Z,3.87
2023-05-19T08:22:19.151Z,4.47
2023-05-19T08:23:21.165Z,4.59
2023-05-19T08:24:23.225Z,4.27
2023-05-19T08:25:25.374Z,4.46
2023-05-19T08:26:28.250Z,4.19
2023-05-19T08:27:31.565Z,4.45
2023-05-19T08:28:33.480Z,4.21
2023-05-19T08:29:35.444Z,4.39
2023-05-19T08:30:37.460Z,4.33
2023-05-19T08:31:39.816Z,4.14
2023-05-19T08:32:41.918Z,4.61
2023-05-19T08:33:44.246Z,4.34
2023-05-19T08:34:46.294Z,5.07
2023-05-19T08:35:48.735Z,4.62
2023-05-19T08:36:50.861Z,6.90
2023-05-19T08:38:54.820Z,4.71
2023-05-19T08:39:57.931Z,4.06
2023-05-19T08:41:00.186Z,5.22
2023-05-19T08:42:02.104Z,4.30
2023-05-19T08:43:04.128Z,4.40
2023-05-19T08:44:06.282Z,4.41
2023-05-19T08:45:09.374Z,4.10
2023-05-19T08:46:13.527Z,4.46
2023-05-19T08:47:17.078Z,4.34
2023-05-19T08:48:19.742Z,4.21
2023-05-19T08:49:25.808Z,4.09
2023-05-19T08:50:31.147Z,5.16
2023-05-19T08:51:37.041Z,4.57
2023-05-19T08:52:51.845Z,4.92
2023-05-19T08:53:57.059Z,4.81
2023-05-19T08:55:05.718Z,4.73
2023-05-19T08:56:11.366Z,4.39
2023-05-19T08:57:13.935Z,4.01
2023-05-19T08:58:17.848Z,4.66
2023-05-19T08:59:22.256Z,4.18
2023-05-19T09:00:26.176Z,4.60
2023-05-19T09:01:28.628Z,4.29
2023-05-19T09:02:31.243Z,4.65
2023-05-19T09:03:34.844Z,4.22
2023-05-19T09:04:39.223Z,4.28
2023-05-19T09:05:41.280Z,4.48
2023-05-19T09:06:43.562Z,4.70
2023-05-19T09:07:45.976Z,4.91
2023-05-19T09:08:48.014Z,4.12
2023-05-19T09:09:49.952Z,4.35
2023-05-19T09:10:51.990Z,4.66
2023-05-19T09:11:53.999Z,4.59
2023-05-19T09:12:55.880Z,4.04
2023-05-19T09:13:57.796Z,4.32
2023-05-19T09:15:00.249Z,5.31
2023-05-19T09:16:03.145Z,4.57
2023-05-19T09:17:06.007Z,4.45
2023-05-19T09:18:10.553Z,4.42
2023-05-19T09:19:13.484Z,4.50
2023-05-19T09:20:16.780Z,4.36
2023-05-19T09:21:18.895Z,4.90
2023-05-19T09:22:20.842Z,4.63
2023-05-19T09:23:23.151Z,4.04
2023-05-19T09:24:25.257Z,4.34
2023-05-19T09:25:27.144Z,4.51
2023-05-19T09:26:37.734Z,4.66
2023-05-19T09:27:39.665Z,4.51
2023-05-19T09:28:41.550Z,5.15
2023-05-19T09:29:46.236Z,4.22
2023-05-19T09:30:48.291Z,5.23
2023-05-19T09:33:02.408Z,5.24
2023-05-19T09:34:08.677Z,5.58
2023-05-19T09:35:12.119Z,5.71
2023-05-19T09:36:14.785Z,5.94
2023-05-19T09:37:16.819Z,5.57
2023-05-19T09:38:19.109Z,6.11
2023-05-19T09:39:23.344Z,6.63
2023-05-19T09:40:28.234Z,6.70
2023-05-19T09:41:30.416Z,5.98
2023-05-19T09:42:36.075Z,5.65
2023-05-19T09:43:37.987Z,5.97
2023-05-19T09:44:41.580Z,5.35
2023-05-19T09:45:43.719Z,6.28
2023-05-19T09:46:53.003Z,5.99
2023-05-19T09:47:55.246Z,6.29
2023-05-19T09:48:57.593Z,6.45
2023-05-19T09:49:59.593Z,5.67
2023-05-19T09:51:04.271Z,5.48
2023-05-19T09:52:08.314Z,5.95
2023-05-19T09:54:25.712Z,6.51
2023-05-19T09:55:28.547Z,5.51
2023-05-19T09:56:34.616Z,5.79
2023-05-19T09:57:38.174Z,5.73
2023-05-19T09:58:41.838Z,5.96
2023-05-19T09:59:45.933Z,6.08
2023-05-19T10:00:49.902Z,5.46
2023-05-19T10:01:54.408Z,5.61
2023-05-19T10:02:57.853Z,6.62
2023-05-19T10:04:00.272Z,8.03
2023-05-19T10:05:03.140Z,6.58
2023-05-19T10:06:05.989Z,7.41
2023-05-19T10:07:10.870Z,7.59
2023-05-19T10:08:13.829Z,7.54
2023-05-19T10:09:17.084Z,8.42
2023-05-19T10:10:20.839Z,7.95
2023-05-19T10:11:24.919Z,8.14
2023-05-19T10:12:27.415Z,7.59
2023-05-19T10:13:31.310Z,7.59
2023-05-19T10:14:33.741Z,7.31
2023-05-19T10:15:46.698Z,7.55
2023-05-19T10:16:41.126Z,8.09
2023-05-19T10:17:44.232Z,8.55
2023-05-19T10:18:49.190Z,7.46
2023-05-19T10:19:52.051Z,7.53
2023-05-19T10:20:55.254Z,7.10
2023-05-19T10:21:57.149Z,5.96
2023-05-19T10:22:59.237Z,5.86
2023-05-19T10:24:01.126Z,5.69
2023-05-19T10:25:05.557Z,6.56
2023-05-19T10:26:09.252Z,7.23
2023-05-19T10:27:14.253Z,6.29
2023-05-19T10:28:18.812Z,7.11
2023-05-19T10:29:24.623Z,5.86
2023-05-19T10:31:52.237Z,5.15
2023-05-19T10:32:55.260Z,4.88
2023-05-19T10:34:25.310Z,4.96
2023-05-19T10:35:45.206Z,4.37
2023-05-19T10:36:51.024Z,4.36
2023-05-19T10:38:05.642Z,3.78
2023-05-19T10:39:11.505Z,4.35
2023-05-19T10:40:29.471Z,4.54
2023-05-19T10:41:45.072Z,4.26
2023-05-19T10:42:54.313Z,4.26
2023-05-19T10:44:12.045Z,4.36
2023-05-19T10:45:23.582Z,3.72
2023-05-19T10:46:27.367Z,4.59
2023-05-19T10:47:29.460Z,4.28
2023-05-19T10:48:35.206Z,5.16
2023-05-19T10:49:38.943Z,4.81
2023-05-19T10:50:43.743Z,3.41
2023-05-19T10:51:46.197Z,4.46
2023-05-19T10:52:55.706Z,4.16
2023-05-19T10:53:57.719Z,4.69
2023-05-19T10:55:00.501Z,4.61
2023-05-19T10:56:03.991Z,6.27
2023-05-19T10:57:07.460Z,6.70
2023-05-19T10:58:10.890Z,5.71
2023-05-19T10:59:30.071Z,5.64
2023-05-19T11:00:32.818Z,5.19
2023-05-19T11:01:35.475Z,4.98
2023-05-19T11:02:39.942Z,5.26
2023-05-19T11:03:53.859Z,5.42
2023-05-19T11:04:59.704Z,4.66
2023-05-19T11:06:28.691Z,4.22
2023-05-19T11:07:30.743Z,4.40
2023-05-19T11:08:33.898Z,4.53
2023-05-19T11:10:51.316Z,4.82
2023-05-19T11:11:53.824Z,4.86
2023-05-19T11:12:58.293Z,5.25
2023-05-19T11:14:00.605Z,4.11
2023-05-19T11:15:02.723Z,4.51
2023-05-19T11:16:08.943Z,4.51
2023-05-19T11:17:15.477Z,4.06
2023-05-19T11:18:18.903Z,5.17
2023-05-19T11:19:28.810Z,4.91
2023-05-19T11:20:31.148Z,5.33
2023-05-19T11:21:50.743Z,5.68
2023-05-19T11:23:08.470Z,6.07
2023-05-19T11:24:31.344Z,4.44
2023-05-19T11:25:46.166Z,6.10
2023-05-19T11:26:48.342Z,5.27
2023-05-19T11:27:52.019Z,6.10
2023-05-19T11:28:54.030Z,6.47
2023-05-19T11:29:59.338Z,6.99
2023-05-19T11:31:01.895Z,4.87
2023-05-19T11:32:04.780Z,5.04
2023-05-19T11:33:08.078Z,5.33
2023-05-19T11:34:10.618Z,3.99
2023-05-19T11:35:13.369Z,3.93
2023-05-19T11:36:15.570Z,4.67
2023-05-19T11:37:17.490Z,6.58
2023-05-19T11:38:20.586Z,4.46
2023-05-19T11:39:23.717Z,4.32
2023-05-19T11:40:26.089Z,4.89
2023-05-19T11:41:28.012Z,5.01
2023-05-19T11:42:31.319Z,4.81
2023-05-19T11:43:33.355Z,4.76
2023-05-19T11:44:35.346Z,4.72
2023-05-19T11:45:37.744Z,5.48
2023-05-19T11:46:40.272Z,5.12
2023-05-19T11:48:00.140Z,4.79
2023-05-19T11:48:49.244Z,4.31
2023-05-19T11:49:51.538Z,4.25
2023-05-19T11:50:54.117Z,5.14
2023-05-19T11:51:58.882Z,4.26
2023-05-19T11:53:00.818Z,4.42
2023-05-19T11:54:03.459Z,4.59
2023-05-19T11:55:06.583Z,4.76
2023-05-19T11:56:08.803Z,5.57
2023-05-19T11:57:10.743Z,4.89
2023-05-19T11:58:12.940Z,4.20
2023-05-19T11:59:14.818Z,5.07
2023-05-19T12:00:17.997Z,4.81
2023-05-19T12:01:23.175Z,4.24
2023-05-19T12:02:25.466Z,4.46
2023-05-19T12:03:27.632Z,4.54
2023-05-19T12:04:30.498Z,4.17
2023-05-19T12:05:37.959Z,5.16
2023-05-19T12:06:39.293Z,4.03
2023-05-19T12:07:41.414Z,5.32
2023-05-19T12:08:44.670Z,5.26
2023-05-19T12:09:47.106Z,4.64
2023-05-19T12:10:51.526Z,4.52
2023-05-19T12:11:54.707Z,4.62
2023-05-19T12:12:57.485Z,5.86
2023-05-19T12:14:00.653Z,5.02
2023-05-19T12:15:03.762Z,5.54
2023-05-19T12:16:07.799Z,5.04
2023-05-19T12:17:15.035Z,5.96
2023-05-19T12:18:16.982Z,5.92
2023-05-19T12:19:24.229Z,4.75
2023-05-19T12:20:28.393Z,6.58
2023-05-19T12:21:34.183Z,5.22
2023-05-19T12:22:35.390Z,5.29
2023-05-19T12:23:38.128Z,4.79
2023-05-19T12:24:41.862Z,4.62
2023-05-19T12:25:44.808Z,4.49
2023-05-19T12:26:47.132Z,5.36
2023-05-19T12:27:49.451Z,5.18
2023-05-19T12:28:51.489Z,5.01
2023-05-19T12:29:55.525Z,5.33
2023-05-19T12:30:57.766Z,4.37
2023-05-19T12:32:02.001Z,5.16
2023-05-19T12:33:04.320Z,5.14
2023-05-19T12:34:06.558Z,4.78
2023-05-19T12:35:10.026Z,4.45
2023-05-19T12:36:15.194Z,4.61
2023-05-19T12:37:17.119Z,4.78
2023-05-19T12:38:19.441Z,5.25
2023-05-19T12:39:21.566Z,5.24
2023-05-19T12:40:24.042Z,5.25
2023-05-19T12:41:26.325Z,5.10
2023-05-19T12:42:30.172Z,5.13
2023-05-19T12:43:32.124Z,5.01
2023-05-19T12:44:44.183Z,4.79
2023-05-19T12:45:46.406Z,6.06
2023-05-19T12:46:51.557Z,5.48
2023-05-19T12:47:53.972Z,5.31
2023-05-19T12:48:58.708Z,5.19
2023-05-19T12:50:09.080Z,5.64
2023-05-19T12:51:20.480Z,5.03
2023-05-19T12:52:23.128Z,5.27
2023-05-19T12:53:26.323Z,5.19
2023-05-19T12:54:33.180Z,4.91
2023-05-19T12:55:40.803Z,4.88
2023-05-19T12:56:51.371Z,5.09
2023-05-19T12:57:53.694Z,4.76
2023-05-19T12:58:55.761Z,5.32
2023-05-19T13:01:22.813Z,4.91
2023-05-19T13:02:24.863Z,4.80
2023-05-19T13:03:27.017Z,4.72
2023-05-19T13:04:29.241Z,4.69
2023-05-19T13:05:34.378Z,4.87
2023-05-19T13:06:36.500Z,4.47
2023-05-19T13:07:38.551Z,5.45
2023-05-19T13:08:40.870Z,5.50
2023-05-19T13:09:42.885Z,4.98
2023-05-19T13:10:47.154Z,5.46
2023-05-19T13:11:49.201Z,4.97
2023-05-19T13:12:51.675Z,4.59
2023-05-19T13:13:55.366Z,4.55
2023-05-19T13:14:57.292Z,4.78
2023-05-19T13:15:59.585Z,5.29
2023-05-19T13:17:01.665Z,4.44
2023-05-19T13:18:08.106Z,5.25
2023-05-19T13:19:23.785Z,4.68
2023-05-19T13:20:14.592Z,5.31
2023-05-19T13:21:16.915Z,5.89
2023-05-19T13:22:18.895Z,5.26
2023-05-19T13:23:21.090Z,5.03
2023-05-19T13:24:22.974Z,4.71
2023-05-19T13:25:26.562Z,4.93
2023-05-19T13:26:28.892Z,4.92
2023-05-19T13:27:30.769Z,4.66
2023-05-19T13:28:32.709Z,4.64
2023-05-19T13:29:35.766Z,5.78
2023-05-19T13:30:40.510Z,5.34
2023-05-19T13:31:42.484Z,5.89
2023-05-19T13:32:45.281Z,7.04
2023-05-19T13:33:47.264Z,6.38
2023-05-19T13:34:49.256Z,6.28
2023-05-19T13:35:51.144Z,5.91
2023-05-19T13:36:53.262Z,7.04
2023-05-19T13:37:55.545Z,7.50
2023-05-19T13:38:57.539Z,6.55
2023-05-19T13:39:59.695Z,7.23
2023-05-19T13:41:01.826Z,6.49
2023-05-19T13:42:04.349Z,5.97
2023-05-19T13:43:06.542Z,6.02
2023-05-19T13:44:08.516Z,6.75
2023-05-19T13:45:10.578Z,7.00
2023-05-19T13:46:13.290Z,6.25
2023-05-19T13:47:15.408Z,6.24
2023-05-19T13:48:17.412Z,6.39
2023-05-19T13:49:19.377Z,6.74
2023-05-19T13:50:21.473Z,6.86
2023-05-19T13:51:23.702Z,6.82
2023-05-19T13:52:28.101Z,6.87
2023-05-19T13:53:29.980Z,6.97
2023-05-19T13:54:31.922Z,6.91
2023-05-19T13:55:33.821Z,6.51
2023-05-19T13:56:36.261Z,6.80
2023-05-19T13:57:38.391Z,6.21
2023-05-19T13:58:40.543Z,6.80
2023-05-19T14:00:00.230Z,6.79
2023-05-19T14:00:47.809Z,7.63
2023-05-19T14:01:49.917Z,6.98
2023-05-19T14:02:52.086Z,6.06
2023-05-19T14:03:54.170Z,6.04
2023-05-19T14:04:56.207Z,6.05
2023-05-19T14:05:58.077Z,6.55
2023-05-19T14:07:00.177Z,6.59
2023-05-19T14:08:02.283Z,6.05
2023-05-19T14:09:05.175Z,6.35
2023-05-19T14:10:08.602Z,6.53
2023-05-19T14:12:37.983Z,5.68
2023-05-19T14:13:36.293Z,6.01
2023-05-19T14:14:37.558Z,6.34
2023-05-19T14:15:39.682Z,5.76
2023-05-19T14:16:42.505Z,6.43
2023-05-19T14:17:44.627Z,5.63
2023-05-19T14:18:47.062Z,6.23